sensor_id;sensor_type;location;lat;lon;timestamp;pressure;altitude;pressure_sealevel;temperature
20058;BMP180;10189;49.546;7.906;2023-06-19T00:00:23;97660.00;;;22.10
20058;BMP180;10189;49.546;7.906;2023-06-19T00:02:49;97660.00;;;22.10
20058;BMP180;10189;49.546;7.906;2023-06-19T00:05:15;97656.00;;;22.00
20058;BMP180;10189;49.546;7.906;2023-06-19T00:07:40;97649.00;;;21.90
20058;BMP180;10189;49.546;7.906;2023-06-19T00:10:07;97644.00;;;21.90
20058;BMP180;10189;49.546;7.906;2023-06-19T00:12:33;97651.00;;;21.80
20058;BMP180;10189;49.546;7.906;2023-06-19T00:14:59;97643.00;;;21.80
20058;BMP180;10189;49.546;7.906;2023-06-19T00:17:25;97644.00;;;21.80
20058;BMP180;10189;49.546;7.906;2023-06-19T00:19:53;97671.00;;;21.80
20058;BMP180;10189;49.546;7.906;2023-06-19T00:22:19;97651.00;;;22.00
20058;BMP180;10189;49.546;7.906;2023-06-19T00:24:46;97653.00;;;22.00
20058;BMP180;10189;49.546;7.906;2023-06-19T00:27:11;97659.00;;;22.00
20058;BMP180;10189;49.546;7.906;2023-06-19T00:29:38;97658.00;;;22.10
20058;BMP180;10189;49.546;7.906;2023-06-19T00:32:05;97672.00;;;22.20
20058;BMP180;10189;49.546;7.906;2023-06-19T00:34:31;97681.00;;;22.20
20058;BMP180;10189;49.546;7.906;2023-06-19T00:36:58;97678.00;;;22.50
20058;BMP180;10189;49.546;7.906;2023-06-19T00:39:25;97683.00;;;22.50
20058;BMP180;10189;49.546;7.906;2023-06-19T00:41:55;97687.00;;;22.50
20058;BMP180;10189;49.546;7.906;2023-06-19T00:44:22;97686.00;;;22.60
20058;BMP180;10189;49.546;7.906;2023-06-19T00:46:57;97678.00;;;22.70
20058;BMP180;10189;49.546;7.906;2023-06-19T00:49:26;97675.00;;;22.60
20058;BMP180;10189;49.546;7.906;2023-06-19T00:51:52;97675.00;;;22.50
20058;BMP180;10189;49.546;7.906;2023-06-19T00:54:20;97686.00;;;22.40
20058;BMP180;10189;49.546;7.906;2023-06-19T00:56:46;97695.00;;;22.40
20058;BMP180;10189;49.546;7.906;2023-06-19T00:59:16;97702.00;;;22.40
20058;BMP180;10189;49.546;7.906;2023-06-19T01:01:43;97702.00;;;22.40
20058;BMP180;10189;49.546;7.906;2023-06-19T01:04:10;97704.00;;;22.40
20058;BMP180;10189;49.546;7.906;2023-06-19T01:06:54;97714.00;;;22.40
20058;BMP180;10189;49.546;7.906;2023-06-19T01:09:34;97713.00;;;22.40
20058;BMP180;10189;49.546;7.906;2023-06-19T01:12:12;97713.00;;;22.40
20058;BMP180;10189;49.546;7.906;2023-06-19T01:14:57;97709.00;;;22.40
20058;BMP180;10189;49.546;7.906;2023-06-19T01:17:26;97714.00;;;22.40
20058;BMP180;10189;49.546;7.906;2023-06-19T01:19:55;97719.00;;;22.30
20058;BMP180;10189;49.546;7.906;2023-06-19T01:22:32;97720.00;;;22.30
20058;BMP180;10189;49.546;7.906;2023-06-19T01:24:58;97721.00;;;22.30
20058;BMP180;10189;49.546;7.906;2023-06-19T01:27:25;97725.00;;;22.50
20058;BMP180;10189;49.546;7.906;2023-06-19T01:29:56;97718.00;;;22.50
20058;BMP180;10189;49.546;7.906;2023-06-19T01:32:50;97699.00;;;22.30
20058;BMP180;10189;49.546;7.906;2023-06-19T01:35:25;97707.00;;;22.30
20058;BMP180;10189;49.546;7.906;2023-06-19T01:37:53;97702.00;;;22.30
20058;BMP180;10189;49.546;7.906;2023-06-19T01:40:20;97693.00;;;22.20
20058;BMP180;10189;49.546;7.906;2023-06-19T01:42:54;97693.00;;;22.10
20058;BMP180;10189;49.546;7.906;2023-06-19T01:45:20;97704.00;;;22.10
20058;BMP180;10189;49.546;7.906;2023-06-19T01:47:47;97702.00;;;22.10
20058;BMP180;10189;49.546;7.906;2023-06-19T01:50:14;97708.00;;;22.00
20058;BMP180;10189;49.546;7.906;2023-06-19T01:52:41;97719.00;;;21.90
20058;BMP180;10189;49.546;7.906;2023-06-19T01:55:08;97723.00;;;22.00
20058;BMP180;10189;49.546;7.906;2023-06-19T01:57:35;97713.00;;;21.90
20058;BMP180;10189;49.546;7.906;2023-06-19T02:00:04;97729.00;;;21.90
20058;BMP180;10189;49.546;7.906;2023-06-19T02:02:39;97725.00;;;21.90
20058;BMP180;10189;49.546;7.906;2023-06-19T02:05:06;97724.00;;;21.90
20058;BMP180;10189;49.546;7.906;2023-06-19T02:07:31;97716.00;;;21.90
20058;BMP180;10189;49.546;7.906;2023-06-19T02:09:58;97724.00;;;22.00
20058;BMP180;10189;49.546;7.906;2023-06-19T02:12:23;97720.00;;;21.90
20058;BMP180;10189;49.546;7.906;2023-06-19T02:14:49;97722.00;;;21.90
20058;BMP180;10189;49.546;7.906;2023-06-19T02:17:15;97731.00;;;22.00
20058;BMP180;10189;49.546;7.906;2023-06-19T02:19:41;97730.00;;;22.00
20058;BMP180;10189;49.546;7.906;2023-06-19T02:22:08;97731.00;;;21.90
20058;BMP180;10189;49.546;7.906;2023-06-19T02:24:34;97736.00;;;21.90
20058;BMP180;10189;49.546;7.906;2023-06-19T02:27:00;97731.00;;;21.80
20058;BMP180;10189;49.546;7.906;2023-06-19T02:29:27;97735.00;;;21.80
20058;BMP180;10189;49.546;7.906;2023-06-19T02:31:55;97732.00;;;21.80
20058;BMP180;10189;49.546;7.906;2023-06-19T02:34:21;97733.00;;;21.70
20058;BMP180;10189;49.546;7.906;2023-06-19T02:36:50;97741.00;;;21.70
20058;BMP180;10189;49.546;7.906;2023-06-19T02:39:16;97733.00;;;21.80
20058;BMP180;10189;49.546;7.906;2023-06-19T02:41:41;97740.00;;;21.70
20058;BMP180;10189;49.546;7.906;2023-06-19T02:44:13;97744.00;;;21.70
20058;BMP180;10189;49.546;7.906;2023-06-19T02:46:39;97750.00;;;21.70
20058;BMP180;10189;49.546;7.906;2023-06-19T02:49:08;97755.00;;;21.60
20058;BMP180;10189;49.546;7.906;2023-06-19T02:51:34;97759.00;;;21.70
20058;BMP180;10189;49.546;7.906;2023-06-19T02:54:00;97770.00;;;21.60
20058;BMP180;10189;49.546;7.906;2023-06-19T02:56:26;97776.00;;;21.60
20058;BMP180;10189;49.546;7.906;2023-06-19T02:58:54;97777.00;;;21.60
20058;BMP180;10189;49.546;7.906;2023-06-19T03:01:20;97776.00;;;21.70
20058;BMP180;10189;49.546;7.906;2023-06-19T03:03:46;97777.00;;;21.60
20058;BMP180;10189;49.546;7.906;2023-06-19T03:06:12;97782.00;;;21.50
20058;BMP180;10189;49.546;7.906;2023-06-19T03:08:39;97787.00;;;21.60
20058;BMP180;10189;49.546;7.906;2023-06-19T03:11:05;97793.00;;;21.60
20058;BMP180;10189;49.546;7.906;2023-06-19T03:13:56;97795.00;;;21.60
20058;BMP180;10189;49.546;7.906;2023-06-19T03:16:22;97802.00;;;21.60
20058;BMP180;10189;49.546;7.906;2023-06-19T03:18:49;97804.00;;;21.60
20058;BMP180;10189;49.546;7.906;2023-06-19T03:21:17;97800.00;;;21.60
20058;BMP180;10189;49.546;7.906;2023-06-19T03:23:46;97806.00;;;21.50
20058;BMP180;10189;49.546;7.906;2023-06-19T03:26:12;97809.00;;;21.50
20058;BMP180;10189;49.546;7.906;2023-06-19T03:28:40;97811.00;;;21.50
20058;BMP180;10189;49.546;7.906;2023-06-19T03:31:08;97817.00;;;21.50
20058;BMP180;10189;49.546;7.906;2023-06-19T03:33:34;97815.00;;;21.50
20058;BMP180;10189;49.546;7.906;2023-06-19T03:36:00;97821.00;;;21.40
20058;BMP180;10189;49.546;7.906;2023-06-19T03:38:48;97823.00;;;21.30
20058;BMP180;10189;49.546;7.906;2023-06-19T03:41:17;97829.00;;;21.30
20058;BMP180;10189;49.546;7.906;2023-06-19T03:43:43;97831.00;;;21.30
20058;BMP180;10189;49.546;7.906;2023-06-19T03:46:09;97827.00;;;21.20
20058;BMP180;10189;49.546;7.906;2023-06-19T03:48:35;97836.00;;;21.20
20058;BMP180;10189;49.546;7.906;2023-06-19T03:51:00;97829.00;;;21.20
20058;BMP180;10189;49.546;7.906;2023-06-19T03:53:27;97831.00;;;21.20
20058;BMP180;10189;49.546;7.906;2023-06-19T03:55:54;97833.00;;;21.20
20058;BMP180;10189;49.546;7.906;2023-06-19T03:58:20;97830.00;;;21.30
20058;BMP180;10189;49.546;7.906;2023-06-19T04:00:46;97826.00;;;21.30
20058;BMP180;10189;49.546;7.906;2023-06-19T04:03:12;97830.00;;;21.20
20058;BMP180;10189;49.546;7.906;2023-06-19T04:05:38;97835.00;;;21.30
20058;BMP180;10189;49.546;7.906;2023-06-19T04:08:07;97834.00;;;21.40
20058;BMP180;10189;49.546;7.906;2023-06-19T04:10:33;97839.00;;;21.50
20058;BMP180;10189;49.546;7.906;2023-06-19T04:12:59;97851.00;;;21.60
20058;BMP180;10189;49.546;7.906;2023-06-19T04:15:25;97847.00;;;21.70
20058;BMP180;10189;49.546;7.906;2023-06-19T04:17:52;97852.00;;;21.70
20058;BMP180;10189;49.546;7.906;2023-06-19T04:20:19;97836.00;;;21.90
20058;BMP180;10189;49.546;7.906;2023-06-19T04:22:47;97847.00;;;22.00
20058;BMP180;10189;49.546;7.906;2023-06-19T04:25:12;97842.00;;;22.10
20058;BMP180;10189;49.546;7.906;2023-06-19T04:27:39;97846.00;;;22.20
20058;BMP180;10189;49.546;7.906;2023-06-19T04:30:06;97842.00;;;22.40
20058;BMP180;10189;49.546;7.906;2023-06-19T04:32:33;97842.00;;;22.60
20058;BMP180;10189;49.546;7.906;2023-06-19T04:35:00;97846.00;;;22.50
20058;BMP180;10189;49.546;7.906;2023-06-19T04:37:26;97838.00;;;22.50
20058;BMP180;10189;49.546;7.906;2023-06-19T04:39:52;97837.00;;;22.40
20058;BMP180;10189;49.546;7.906;2023-06-19T04:42:18;97837.00;;;22.10
20058;BMP180;10189;49.546;7.906;2023-06-19T04:44:47;97844.00;;;22.10
20058;BMP180;10189;49.546;7.906;2023-06-19T04:47:16;97840.00;;;22.20
20058;BMP180;10189;49.546;7.906;2023-06-19T04:49:42;97844.00;;;22.20
20058;BMP180;10189;49.546;7.906;2023-06-19T04:52:08;97838.00;;;22.20
20058;BMP180;10189;49.546;7.906;2023-06-19T04:54:34;97845.00;;;22.10
20058;BMP180;10189;49.546;7.906;2023-06-19T04:57:00;97839.00;;;22.20
20058;BMP180;10189;49.546;7.906;2023-06-19T04:59:27;97839.00;;;22.20
20058;BMP180;10189;49.546;7.906;2023-06-19T05:01:53;97837.00;;;22.30
20058;BMP180;10189;49.546;7.906;2023-06-19T05:04:20;97838.00;;;22.40
20058;BMP180;10189;49.546;7.906;2023-06-19T05:06:51;97839.00;;;22.40
20058;BMP180;10189;49.546;7.906;2023-06-19T05:09:17;97835.00;;;22.50
20058;BMP180;10189;49.546;7.906;2023-06-19T05:11:43;97840.00;;;22.60
20058;BMP180;10189;49.546;7.906;2023-06-19T05:14:09;97848.00;;;22.60
20058;BMP180;10189;49.546;7.906;2023-06-19T05:16:35;97842.00;;;22.70
20058;BMP180;10189;49.546;7.906;2023-06-19T05:19:01;97842.00;;;22.70
20058;BMP180;10189;49.546;7.906;2023-06-19T05:21:27;97849.00;;;22.90
20058;BMP180;10189;49.546;7.906;2023-06-19T05:23:53;97849.00;;;22.80
20058;BMP180;10189;49.546;7.906;2023-06-19T05:26:20;97856.00;;;22.90
20058;BMP180;10189;49.546;7.906;2023-06-19T05:28:46;97852.00;;;23.00
20058;BMP180;10189;49.546;7.906;2023-06-19T05:31:12;97851.00;;;23.10
20058;BMP180;10189;49.546;7.906;2023-06-19T05:33:38;97848.00;;;23.40
20058;BMP180;10189;49.546;7.906;2023-06-19T05:36:04;97855.00;;;23.30
20058;BMP180;10189;49.546;7.906;2023-06-19T05:38:30;97855.00;;;23.40
20058;BMP180;10189;49.546;7.906;2023-06-19T05:40:57;97862.00;;;23.20
20058;BMP180;10189;49.546;7.906;2023-06-19T05:43:23;97850.00;;;23.40
20058;BMP180;10189;49.546;7.906;2023-06-19T05:45:50;97858.00;;;23.40
20058;BMP180;10189;49.546;7.906;2023-06-19T05:48:16;97859.00;;;23.40
20058;BMP180;10189;49.546;7.906;2023-06-19T05:50:42;97855.00;;;23.60
20058;BMP180;10189;49.546;7.906;2023-06-19T05:53:08;97854.00;;;23.30
20058;BMP180;10189;49.546;7.906;2023-06-19T05:55:34;97846.00;;;23.40
20058;BMP180;10189;49.546;7.906;2023-06-19T05:58:00;97843.00;;;23.70
20058;BMP180;10189;49.546;7.906;2023-06-19T06:00:26;97851.00;;;23.90
20058;BMP180;10189;49.546;7.906;2023-06-19T06:02:53;97847.00;;;23.90
20058;BMP180;10189;49.546;7.906;2023-06-19T06:05:19;97831.00;;;24.00
20058;BMP180;10189;49.546;7.906;2023-06-19T06:07:46;97836.00;;;24.20
20058;BMP180;10189;49.546;7.906;2023-06-19T06:10:12;97845.00;;;24.20
20058;BMP180;10189;49.546;7.906;2023-06-19T06:12:39;97862.00;;;24.50
20058;BMP180;10189;49.546;7.906;2023-06-19T06:15:05;97860.00;;;24.50
20058;BMP180;10189;49.546;7.906;2023-06-19T06:17:31;97861.00;;;24.50
20058;BMP180;10189;49.546;7.906;2023-06-19T06:19:57;97859.00;;;24.50
20058;BMP180;10189;49.546;7.906;2023-06-19T06:22:23;97863.00;;;24.60
20058;BMP180;10189;49.546;7.906;2023-06-19T06:24:49;97858.00;;;24.10
20058;BMP180;10189;49.546;7.906;2023-06-19T06:27:15;97866.00;;;24.30
20058;BMP180;10189;49.546;7.906;2023-06-19T06:29:41;97867.00;;;24.20
20058;BMP180;10189;49.546;7.906;2023-06-19T06:32:09;97864.00;;;24.40
20058;BMP180;10189;49.546;7.906;2023-06-19T06:34:35;97870.00;;;24.10
20058;BMP180;10189;49.546;7.906;2023-06-19T06:37:01;97876.00;;;24.30
20058;BMP180;10189;49.546;7.906;2023-06-19T06:39:28;97876.00;;;24.40
20058;BMP180;10189;49.546;7.906;2023-06-19T06:41:54;97885.00;;;23.90
20058;BMP180;10189;49.546;7.906;2023-06-19T06:44:20;97889.00;;;24.20
20058;BMP180;10189;49.546;7.906;2023-06-19T06:46:46;97888.00;;;24.40
20058;BMP180;10189;49.546;7.906;2023-06-19T06:49:12;97895.00;;;24.40
20058;BMP180;10189;49.546;7.906;2023-06-19T06:51:38;97880.00;;;24.30
20058;BMP180;10189;49.546;7.906;2023-06-19T06:54:04;97895.00;;;24.40
20058;BMP180;10189;49.546;7.906;2023-06-19T06:56:30;97899.00;;;24.40
20058;BMP180;10189;49.546;7.906;2023-06-19T06:58:55;97905.00;;;24.60
20058;BMP180;10189;49.546;7.906;2023-06-19T07:01:21;97907.00;;;24.60
20058;BMP180;10189;49.546;7.906;2023-06-19T07:03:47;97894.00;;;24.50
20058;BMP180;10189;49.546;7.906;2023-06-19T07:06:13;97896.00;;;24.60
20058;BMP180;10189;49.546;7.906;2023-06-19T07:08:39;97911.00;;;24.70
20058;BMP180;10189;49.546;7.906;2023-06-19T07:11:09;97907.00;;;24.70
20058;BMP180;10189;49.546;7.906;2023-06-19T07:13:34;97919.00;;;24.80
20058;BMP180;10189;49.546;7.906;2023-06-19T07:16:00;97912.00;;;24.40
20058;BMP180;10189;49.546;7.906;2023-06-19T07:18:27;97916.00;;;24.30
20058;BMP180;10189;49.546;7.906;2023-06-19T07:20:53;97914.00;;;24.30
20058;BMP180;10189;49.546;7.906;2023-06-19T07:23:19;97917.00;;;24.70
20058;BMP180;10189;49.546;7.906;2023-06-19T07:25:48;97924.00;;;25.10
20058;BMP180;10189;49.546;7.906;2023-06-19T07:28:15;97912.00;;;25.40
20058;BMP180;10189;49.546;7.906;2023-06-19T07:30:41;97915.00;;;25.30
20058;BMP180;10189;49.546;7.906;2023-06-19T07:33:07;97916.00;;;25.10
20058;BMP180;10189;49.546;7.906;2023-06-19T07:35:32;97925.00;;;24.90
20058;BMP180;10189;49.546;7.906;2023-06-19T07:37:58;97927.00;;;24.70
20058;BMP180;10189;49.546;7.906;2023-06-19T07:40:24;97923.00;;;25.10
20058;BMP180;10189;49.546;7.906;2023-06-19T07:42:50;97930.00;;;25.30
20058;BMP180;10189;49.546;7.906;2023-06-19T07:45:16;97925.00;;;25.50
20058;BMP180;10189;49.546;7.906;2023-06-19T07:47:42;97927.00;;;26.10
20058;BMP180;10189;49.546;7.906;2023-06-19T07:50:08;97936.00;;;26.30
20058;BMP180;10189;49.546;7.906;2023-06-19T07:52:34;97941.00;;;26.60
20058;BMP180;10189;49.546;7.906;2023-06-19T07:55:00;97936.00;;;25.90
20058;BMP180;10189;49.546;7.906;2023-06-19T07:57:26;97931.00;;;26.10
20058;BMP180;10189;49.546;7.906;2023-06-19T07:59:54;97935.00;;;26.10
20058;BMP180;10189;49.546;7.906;2023-06-19T08:02:20;97934.00;;;26.40
20058;BMP180;10189;49.546;7.906;2023-06-19T08:04:47;97937.00;;;26.30
20058;BMP180;10189;49.546;7.906;2023-06-19T08:07:13;97952.00;;;26.10
20058;BMP180;10189;49.546;7.906;2023-06-19T08:09:39;97948.00;;;26.50
20058;BMP180;10189;49.546;7.906;2023-06-19T08:12:05;97944.00;;;26.50
20058;BMP180;10189;49.546;7.906;2023-06-19T08:14:31;97944.00;;;27.10
20058;BMP180;10189;49.546;7.906;2023-06-19T08:16:57;97945.00;;;27.00
20058;BMP180;10189;49.546;7.906;2023-06-19T08:19:23;97949.00;;;27.30
20058;BMP180;10189;49.546;7.906;2023-06-19T08:21:48;97948.00;;;27.30
20058;BMP180;10189;49.546;7.906;2023-06-19T08:24:14;97938.00;;;27.10
20058;BMP180;10189;49.546;7.906;2023-06-19T08:26:40;97946.00;;;27.00
20058;BMP180;10189;49.546;7.906;2023-06-19T08:29:06;97945.00;;;27.50
20058;BMP180;10189;49.546;7.906;2023-06-19T08:31:32;97943.00;;;27.00
20058;BMP180;10189;49.546;7.906;2023-06-19T08:33:59;97943.00;;;27.00
20058;BMP180;10189;49.546;7.906;2023-06-19T08:36:26;97949.00;;;26.60
20058;BMP180;10189;49.546;7.906;2023-06-19T08:38:51;97955.00;;;26.50
20058;BMP180;10189;49.546;7.906;2023-06-19T08:41:19;97955.00;;;26.60
20058;BMP180;10189;49.546;7.906;2023-06-19T08:43:46;97957.00;;;26.70
20058;BMP180;10189;49.546;7.906;2023-06-19T08:46:15;97960.00;;;26.70
20058;BMP180;10189;49.546;7.906;2023-06-19T08:48:44;97963.00;;;26.20
20058;BMP180;10189;49.546;7.906;2023-06-19T08:51:11;97967.00;;;26.00
20058;BMP180;10189;49.546;7.906;2023-06-19T08:53:49;97969.00;;;25.90
20058;BMP180;10189;49.546;7.906;2023-06-19T08:56:18;97954.00;;;26.20
20058;BMP180;10189;49.546;7.906;2023-06-19T08:58:44;97955.00;;;26.50
20058;BMP180;10189;49.546;7.906;2023-06-19T09:01:10;97950.00;;;26.70
20058;BMP180;10189;49.546;7.906;2023-06-19T09:03:36;97955.00;;;27.10
20058;BMP180;10189;49.546;7.906;2023-06-19T09:06:08;97954.00;;;27.00
20058;BMP180;10189;49.546;7.906;2023-06-19T09:08:34;97963.00;;;27.30
20058;BMP180;10189;49.546;7.906;2023-06-19T09:11:04;97952.00;;;26.80
20058;BMP180;10189;49.546;7.906;2023-06-19T09:13:32;97948.00;;;27.10
20058;BMP180;10189;49.546;7.906;2023-06-19T09:16:02;97948.00;;;27.60
20058;BMP180;10189;49.546;7.906;2023-06-19T09:18:31;97967.00;;;27.80
20058;BMP180;10189;49.546;7.906;2023-06-19T09:20:58;97963.00;;;27.60
20058;BMP180;10189;49.546;7.906;2023-06-19T09:23:24;97954.00;;;28.10
20058;BMP180;10189;49.546;7.906;2023-06-19T09:25:57;97967.00;;;28.20
20058;BMP180;10189;49.546;7.906;2023-06-19T09:28:26;97960.00;;;27.00
20058;BMP180;10189;49.546;7.906;2023-06-19T09:33:19;97965.00;;;27.20
20058;BMP180;10189;49.546;7.906;2023-06-19T09:35:45;97967.00;;;27.50
20058;BMP180;10189;49.546;7.906;2023-06-19T09:38:13;97963.00;;;27.40
20058;BMP180;10189;49.546;7.906;2023-06-19T09:40:41;97953.00;;;28.10
20058;BMP180;10189;49.546;7.906;2023-06-19T09:43:08;97956.00;;;28.60
20058;BMP180;10189;49.546;7.906;2023-06-19T09:45:34;97958.00;;;28.60
20058;BMP180;10189;49.546;7.906;2023-06-19T09:48:01;97960.00;;;28.60
20058;BMP180;10189;49.546;7.906;2023-06-19T09:50:50;97951.00;;;28.40
20058;BMP180;10189;49.546;7.906;2023-06-19T09:53:19;97948.00;;;28.30
20058;BMP180;10189;49.546;7.906;2023-06-19T09:55:49;97946.00;;;28.70
20058;BMP180;10189;49.546;7.906;2023-06-19T09:58:19;97967.00;;;28.40
20058;BMP180;10189;49.546;7.906;2023-06-19T10:00:46;97957.00;;;28.50
20058;BMP180;10189;49.546;7.906;2023-06-19T10:03:16;97956.00;;;29.20
20058;BMP180;10189;49.546;7.906;2023-06-19T10:05:42;97968.00;;;29.50
20058;BMP180;10189;49.546;7.906;2023-06-19T10:08:09;97953.00;;;29.20
20058;BMP180;10189;49.546;7.906;2023-06-19T10:10:35;97956.00;;;28.70
20058;BMP180;10189;49.546;7.906;2023-06-19T10:13:16;97946.00;;;29.00
20058;BMP180;10189;49.546;7.906;2023-06-19T10:15:44;97959.00;;;28.40
20058;BMP180;10189;49.546;7.906;2023-06-19T10:18:18;97952.00;;;28.40
20058;BMP180;10189;49.546;7.906;2023-06-19T10:20:45;97955.00;;;28.50
20058;BMP180;10189;49.546;7.906;2023-06-19T10:23:21;97951.00;;;28.50
20058;BMP180;10189;49.546;7.906;2023-06-19T10:26:00;97949.00;;;28.70
20058;BMP180;10189;49.546;7.906;2023-06-19T10:28:33;97953.00;;;28.40
20058;BMP180;10189;49.546;7.906;2023-06-19T10:31:07;97950.00;;;27.90
20058;BMP180;10189;49.546;7.906;2023-06-19T10:33:37;97941.00;;;28.10
20058;BMP180;10189;49.546;7.906;2023-06-19T10:36:23;97943.00;;;28.60
20058;BMP180;10189;49.546;7.906;2023-06-19T10:38:51;97933.00;;;28.80
20058;BMP180;10189;49.546;7.906;2023-06-19T10:41:25;97937.00;;;28.90
20058;BMP180;10189;49.546;7.906;2023-06-19T10:44:03;97937.00;;;29.10
20058;BMP180;10189;49.546;7.906;2023-06-19T10:46:33;97928.00;;;29.60
20058;BMP180;10189;49.546;7.906;2023-06-19T10:49:00;97930.00;;;29.00
20058;BMP180;10189;49.546;7.906;2023-06-19T10:51:38;97931.00;;;28.40
20058;BMP180;10189;49.546;7.906;2023-06-19T10:54:05;97921.00;;;28.20
20058;BMP180;10189;49.546;7.906;2023-06-19T10:56:31;97928.00;;;28.60
20058;BMP180;10189;49.546;7.906;2023-06-19T10:59:02;97927.00;;;29.00
20058;BMP180;10189;49.546;7.906;2023-06-19T11:01:48;97917.00;;;29.60
20058;BMP180;10189;49.546;7.906;2023-06-19T11:04:17;97921.00;;;29.40
20058;BMP180;10189;49.546;7.906;2023-06-19T11:06:45;97920.00;;;29.10
20058;BMP180;10189;49.546;7.906;2023-06-19T11:09:14;97909.00;;;29.50
20058;BMP180;10189;49.546;7.906;2023-06-19T11:11:43;97914.00;;;29.00
20058;BMP180;10189;49.546;7.906;2023-06-19T11:14:11;97923.00;;;29.20
20058;BMP180;10189;49.546;7.906;2023-06-19T11:16:44;97927.00;;;29.40
20058;BMP180;10189;49.546;7.906;2023-06-19T11:19:19;97927.00;;;29.70
20058;BMP180;10189;49.546;7.906;2023-06-19T11:21:54;97915.00;;;29.70
20058;BMP180;10189;49.546;7.906;2023-06-19T11:24:23;97915.00;;;29.70
20058;BMP180;10189;49.546;7.906;2023-06-19T11:26:50;97918.00;;;29.80
20058;BMP180;10189;49.546;7.906;2023-06-19T11:29:31;97916.00;;;29.60
20058;BMP180;10189;49.546;7.906;2023-06-19T11:32:14;97914.00;;;29.80
20058;BMP180;10189;49.546;7.906;2023-06-19T11:34:41;97906.00;;;30.00
20058;BMP180;10189;49.546;7.906;2023-06-19T11:37:17;97909.00;;;29.70
20058;BMP180;10189;49.546;7.906;2023-06-19T11:39:45;97901.00;;;29.10
20058;BMP180;10189;49.546;7.906;2023-06-19T11:42:11;97907.00;;;29.50
20058;BMP180;10189;49.546;7.906;2023-06-19T11:45:00;97905.00;;;29.50
20058;BMP180;10189;49.546;7.906;2023-06-19T11:47:33;97911.00;;;29.20
20058;BMP180;10189;49.546;7.906;2023-06-19T11:50:00;97917.00;;;28.80
20058;BMP180;10189;49.546;7.906;2023-06-19T11:52:29;97915.00;;;28.80
20058;BMP180;10189;49.546;7.906;2023-06-19T11:54:56;97904.00;;;29.10
20058;BMP180;10189;49.546;7.906;2023-06-19T11:57:22;97902.00;;;29.20
20058;BMP180;10189;49.546;7.906;2023-06-19T11:59:48;97907.00;;;29.60
20058;BMP180;10189;49.546;7.906;2023-06-19T12:02:14;97911.00;;;30.00
20058;BMP180;10189;49.546;7.906;2023-06-19T12:04:40;97908.00;;;29.70
20058;BMP180;10189;49.546;7.906;2023-06-19T12:07:06;97911.00;;;29.80
20058;BMP180;10189;49.546;7.906;2023-06-19T12:09:32;97901.00;;;30.20
20058;BMP180;10189;49.546;7.906;2023-06-19T12:11:58;97904.00;;;30.10
20058;BMP180;10189;49.546;7.906;2023-06-19T12:14:25;97907.00;;;30.10
20058;BMP180;10189;49.546;7.906;2023-06-19T12:16:52;97895.00;;;30.20
20058;BMP180;10189;49.546;7.906;2023-06-19T12:19:18;97900.00;;;30.60
20058;BMP180;10189;49.546;7.906;2023-06-19T12:21:44;97894.00;;;30.90
20058;BMP180;10189;49.546;7.906;2023-06-19T12:24:09;97891.00;;;30.80
20058;BMP180;10189;49.546;7.906;2023-06-19T12:26:36;97890.00;;;30.40
20058;BMP180;10189;49.546;7.906;2023-06-19T12:29:03;97882.00;;;30.80
20058;BMP180;10189;49.546;7.906;2023-06-19T12:31:31;97886.00;;;31.10
20058;BMP180;10189;49.546;7.906;2023-06-19T12:33:57;97883.00;;;31.60
20058;BMP180;10189;49.546;7.906;2023-06-19T12:36:23;97886.00;;;31.70
20058;BMP180;10189;49.546;7.906;2023-06-19T12:38:49;97884.00;;;32.10
20058;BMP180;10189;49.546;7.906;2023-06-19T12:41:15;97878.00;;;32.60
20058;BMP180;10189;49.546;7.906;2023-06-19T12:43:41;97878.00;;;32.90
20058;BMP180;10189;49.546;7.906;2023-06-19T12:46:07;97871.00;;;32.00
20058;BMP180;10189;49.546;7.906;2023-06-19T12:48:33;97878.00;;;31.80
20058;BMP180;10189;49.546;7.906;2023-06-19T12:50:59;97876.00;;;31.20
20058;BMP180;10189;49.546;7.906;2023-06-19T12:53:25;97874.00;;;31.20
20058;BMP180;10189;49.546;7.906;2023-06-19T12:55:57;97870.00;;;31.60
20058;BMP180;10189;49.546;7.906;2023-06-19T12:58:23;97877.00;;;31.90
20058;BMP180;10189;49.546;7.906;2023-06-19T13:00:49;97876.00;;;32.30
20058;BMP180;10189;49.546;7.906;2023-06-19T13:03:15;97879.00;;;32.20
20058;BMP180;10189;49.546;7.906;2023-06-19T13:05:41;97883.00;;;31.40
20058;BMP180;10189;49.546;7.906;2023-06-19T13:08:07;97882.00;;;31.00
20058;BMP180;10189;49.546;7.906;2023-06-19T13:10:33;97882.00;;;31.20
20058;BMP180;10189;49.546;7.906;2023-06-19T13:12:58;97878.00;;;30.80
20058;BMP180;10189;49.546;7.906;2023-06-19T13:15:25;97882.00;;;30.90
20058;BMP180;10189;49.546;7.906;2023-06-19T13:17:51;97880.00;;;31.10
20058;BMP180;10189;49.546;7.906;2023-06-19T13:20:17;97880.00;;;31.50
20058;BMP180;10189;49.546;7.906;2023-06-19T13:22:43;97881.00;;;31.10
20058;BMP180;10189;49.546;7.906;2023-06-19T13:25:09;97880.00;;;31.00
20058;BMP180;10189;49.546;7.906;2023-06-19T13:27:35;97881.00;;;30.60
20058;BMP180;10189;49.546;7.906;2023-06-19T13:30:02;97879.00;;;30.80
20058;BMP180;10189;49.546;7.906;2023-06-19T13:32:28;97880.00;;;31.30
20058;BMP180;10189;49.546;7.906;2023-06-19T13:34:54;97878.00;;;31.50
20058;BMP180;10189;49.546;7.906;2023-06-19T13:37:20;97870.00;;;31.60
20058;BMP180;10189;49.546;7.906;2023-06-19T13:39:46;97875.00;;;31.90
20058;BMP180;10189;49.546;7.906;2023-06-19T13:42:12;97869.00;;;31.40
20058;BMP180;10189;49.546;7.906;2023-06-19T13:44:38;97860.00;;;30.90
20058;BMP180;10189;49.546;7.906;2023-06-19T13:47:05;97859.00;;;30.80
20058;BMP180;10189;49.546;7.906;2023-06-19T13:49:31;97852.00;;;30.80
20058;BMP180;10189;49.546;7.906;2023-06-19T13:51:56;97854.00;;;31.00
20058;BMP180;10189;49.546;7.906;2023-06-19T13:54:22;97854.00;;;30.80
20058;BMP180;10189;49.546;7.906;2023-06-19T13:56:48;97857.00;;;31.00
20058;BMP180;10189;49.546;7.906;2023-06-19T13:59:17;97846.00;;;31.20
20058;BMP180;10189;49.546;7.906;2023-06-19T14:01:42;97858.00;;;30.40
20058;BMP180;10189;49.546;7.906;2023-06-19T14:04:09;97854.00;;;30.20
20058;BMP180;10189;49.546;7.906;2023-06-19T14:06:35;97855.00;;;30.10
20058;BMP180;10189;49.546;7.906;2023-06-19T14:09:03;97855.00;;;30.00
20058;BMP180;10189;49.546;7.906;2023-06-19T14:11:29;97859.00;;;30.30
20058;BMP180;10189;49.546;7.906;2023-06-19T14:13:55;97854.00;;;30.80